Time;durP1;ratioP1;P1;durP2;ratioP2;P2;SDS_P1;SDS_P2;PMS_P1;PMS_P2;Temp;Humidity;BMP_temperature;BMP_pressure;BME280_temperature;BME280_humidity;BME280_pressure;Samples;Min_cycle;Max_cycle;Signal;HPM_P1;HPM_P2
2023/07/26 00:00:54;;;;;;;5.25;2.65;;;;;;;16.13;100.00;101052.59;5002881;28;20140;-71
2023/07/26 00:03:21;;;;;;;6.15;2.08;;;;;;;16.11;100.00;101050.13;4987972;28;20045;-71
2023/07/26 00:05:48;;;;;;;4.15;2.65;;;;;;;16.07;100.00;101051.47;4982826;28;20050;-71
2023/07/26 00:08:14;;;;;;;5.78;3.00;;;;;;;16.11;100.00;101051.94;5003289;28;20109;-73
2023/07/26 00:10:47;;;;;;;5.70;3.00;;;;;;;16.13;100.00;101044.66;4964985;28;20158;-73
2023/07/26 00:13:17;;;;;;;8.57;3.20;;;;;;;16.09;100.00;101035.41;4990257;28;20049;-71
2023/07/26 00:15:44;;;;;;;6.00;3.20;;;;;;;16.05;100.00;101050.00;5008394;28;20046;-71
2023/07/26 00:18:11;;;;;;;5.90;3.17;;;;;;;16.08;100.00;101041.72;4998102;28;20073;-73
2023/07/26 00:20:37;;;;;;;6.47;3.80;;;;;;;16.05;100.00;101045.53;5009136;28;20075;-72
2023/07/26 00:23:04;;;;;;;6.50;3.50;;;;;;;16.07;100.00;101045.34;4994149;28;20057;-72
2023/07/26 00:25:30;;;;;;;5.30;3.35;;;;;;;16.13;100.00;101053.44;4990741;28;20057;-70
2023/07/26 00:27:57;;;;;;;4.75;3.72;;;;;;;16.05;100.00;101058.75;4989508;28;20060;-71
2023/07/26 00:30:24;;;;;;;5.70;3.97;;;;;;;16.09;100.00;101059.25;5009090;28;20140;-72
2023/07/26 00:32:50;;;;;;;7.80;3.83;;;;;;;16.05;100.00;101061.41;4995308;28;20064;-72
2023/07/26 00:35:21;;;;;;;8.80;4.10;;;;;;;15.91;100.00;101067.47;4987734;28;20046;-71
2023/07/26 00:37:50;;;;;;;8.05;4.60;;;;;;;15.80;100.00;101066.06;4977780;28;20055;-71
2023/07/26 00:40:16;;;;;;;8.02;4.40;;;;;;;15.63;100.00;101065.28;4980816;28;20458;-71
2023/07/26 00:42:43;;;;;;;6.30;4.55;;;;;;;15.58;100.00;101059.69;4977826;28;20137;-71
2023/07/26 00:45:10;;;;;;;6.22;4.75;;;;;;;15.50;100.00;101065.03;4983153;28;20646;-72
2023/07/26 00:47:37;;;;;;;5.93;4.47;;;;;;;15.38;100.00;101059.28;4958656;28;20055;-72
2023/07/26 00:50:05;;;;;;;7.30;5.10;;;;;;;15.32;100.00;101054.69;4983713;28;20058;-72
2023/07/26 00:52:31;;;;;;;7.87;4.47;;;;;;;15.15;100.00;101054.78;4976148;28;20065;-71
2023/07/26 00:55:02;;;;;;;5.93;4.82;;;;;;;15.13;100.00;101048.84;4980231;28;20047;-72
2023/07/26 00:57:29;;;;;;;9.55;5.13;;;;;;;15.15;100.00;101057.41;4975372;28;20054;-72
2023/07/26 00:59:57;;;;;;;6.20;4.73;;;;;;;15.14;100.00;101058.41;4975715;28;20089;-72
2023/07/26 01:02:23;;;;;;;8.10;4.82;;;;;;;15.14;100.00;101053.13;4998312;28;20050;-72
2023/07/26 01:04:51;;;;;;;5.90;4.80;;;;;;;15.22;100.00;101055.72;5003828;28;20592;-72
2023/07/26 01:07:34;;;;;;;7.60;4.40;;;;;;;15.20;100.00;101044.50;5004292;28;20552;-73
2023/07/26 01:10:19;;;;;;;7.68;4.20;;;;;;;15.15;100.00;101048.63;4985024;28;20081;-72
2023/07/26 01:12:54;;;;;;;9.13;4.30;;;;;;;15.09;100.00;101044.03;4979042;28;20106;-73
2023/07/26 01:15:29;;;;;;;5.72;4.13;;;;;;;14.99;100.00;101046.88;4981126;28;20049;-72
2023/07/26 01:18:14;;;;;;;5.75;3.65;;;;;;;14.94;100.00;101044.75;4967663;28;20062;-72
2023/07/26 01:20:41;;;;;;;5.75;4.10;;;;;;;14.95;100.00;101043.75;4970780;28;20051;-71
2023/07/26 01:23:11;;;;;;;7.10;4.00;;;;;;;14.94;100.00;101038.66;4976036;28;20054;-72
2023/07/26 01:25:37;;;;;;;8.93;4.13;;;;;;;14.94;100.00;101043.94;4966659;28;20078;-72
2023/07/26 01:28:04;;;;;;;5.88;3.80;;;;;;;14.89;100.00;101035.69;4976690;28;20141;-72
2023/07/26 01:30:32;;;;;;;5.68;4.13;;;;;;;14.95;100.00;101038.47;4994761;28;20144;-72
2023/07/26 01:33:01;;;;;;;;;;;;;;;15.00;100.00;101044.06;4972485;28;20055;-72
2023/07/26 01:35:28;;;;;;;4.45;3.53;;;;;;;14.99;100.00;101042.44;4989673;28;19945;-72
2023/07/26 01:37:55;;;;;;;5.47;3.90;;;;;;;15.00;100.00;101037.97;4970257;28;20061;-73
2023/07/26 01:40:22;;;;;;;6.90;4.63;;;;;;;15.05;100.00;101045.38;4986590;28;20065;-72
2023/07/26 01:42:49;;;;;;;5.65;4.22;;;;;;;15.00;100.00;101044.06;4973750;28;20050;-71
2023/07/26 01:45:16;;;;;;;5.63;4.07;;;;;;;14.94;100.00;101043.94;4973115;28;20053;-72
2023/07/26 01:47:42;;;;;;;10.18;4.68;;;;;;;14.92;100.00;101040.66;4989290;28;20117;-72
2023/07/26 01:50:10;;;;;;;6.43;4.13;;;;;;;14.87;100.00;101049.06;4993528;28;20081;-72
2023/07/26 01:52:36;;;;;;;6.00;3.60;;;;;;;14.87;100.00;101050.88;4992289;28;20140;-72
2023/07/26 01:55:03;;;;;;;8.27;4.03;;;;;;;14.88;100.00;101045.44;4955144;28;20145;-72
2023/07/26 01:57:30;;;;;;;5.63;3.80;;;;;;;14.87;100.00;101050.88;4979717;28;20137;-72
2023/07/26 01:59:57;;;;;;;5.22;3.42;;;;;;;14.80;100.00;101051.56;4981302;28;20755;-72
2023/07/26 02:02:24;;;;;;;8.35;4.28;;;;;;;14.78;100.00;101061.47;4984556;28;20058;-72
2023/07/26 02:04:50;;;;;;;6.22;3.65;;;;;;;14.80;100.00;101053.38;4985918;28;20495;-72
2023/07/26 02:07:17;;;;;;;4.57;3.35;;;;;;;14.75;100.00;101053.88;4998458;28;20157;-72
2023/07/26 02:09:43;;;;;;;8.77;4.18;;;;;;;14.72;100.00;101054.22;4997117;28;20049;-72
2023/07/26 02:12:10;;;;;;;5.53;3.95;;;;;;;14.61;100.00;101047.47;4968582;28;20054;-72
2023/07/26 02:14:36;;;;;;;4.82;3.85;;;;;;;14.59;100.00;101051.28;4981254;28;20096;-72
2023/07/26 02:17:03;;;;;;;4.85;3.67;;;;;;;14.56;100.00;101051.56;4988201;28;20056;-72
2023/07/26 02:19:30;;;;;;;3.97;3.35;;;;;;;14.54;100.00;101054.34;4993808;28;20599;-72
2023/07/26 02:21:56;;;;;;;5.60;3.65;;;;;;;14.52;100.00;101048.44;4981997;28;20474;-72
2023/07/26 02:24:23;;;;;;;4.13;3.10;;;;;;;14.54;100.00;101050.91;4990286;28;20050;-72
2023/07/26 02:26:49;;;;;;;5.38;3.47;;;;;;;14.51;100.00;101045.97;4979527;28;20045;-71
2023/07/26 02:29:16;;;;;;;7.88;3.85;;;;;;;14.48;100.00;101044.47;4982483;28;20099;-69
2023/07/26 02:31:42;;;;;;;6.25;3.40;;;;;;;14.43;100.00;101044.16;4991461;28;20046;-69
2023/07/26 02:34:09;;;;;;;4.53;3.60;;;;;;;14.43;100.00;101042.34;4972267;28;20061;-70
2023/07/26 02:36:36;;;;;;;4.72;3.60;;;;;;;14.38;100.00;101036.72;4975152;28;20053;-68
2023/07/26 02:39:03;;;;;;;5.05;3.60;;;;;;;14.34;100.00;101038.06;4987808;28;20050;-70
2023/07/26 02:41:30;;;;;;;6.15;3.65;;;;;;;14.28;100.00;101033.44;4971877;28;20058;-68
2023/07/26 02:43:57;;;;;;;4.70;3.78;;;;;;;14.21;100.00;101043.84;4978103;28;20148;-69
2023/07/26 02:46:23;;;;;;;7.30;3.78;;;;;;;14.15;100.00;101035.75;4979416;28;20316;-69
2023/07/26 02:48:50;;;;;;;4.63;3.60;;;;;;;14.13;100.00;101037.72;4985134;28;20085;-68
2023/07/26 02:51:16;;;;;;;6.75;4.20;;;;;;;14.07;100.00;101048.94;4983136;28;20057;-68
2023/07/26 02:53:43;;;;;;;4.95;3.55;;;;;;;14.03;100.00;101046.63;4970115;28;20101;-69
2023/07/26 02:56:10;;;;;;;4.78;3.80;;;;;;;13.98;100.00;101045.47;4987269;28;20162;-70
2023/07/26 02:58:36;;;;;;;4.88;3.78;;;;;;;13.92;100.00;101043.50;4979648;28;20085;-69
2023/07/26 03:01:03;;;;;;;5.03;4.00;;;;;;;13.91;100.00;101042.66;4991867;28;20053;-68
2023/07/26 03:03:29;;;;;;;5.60;3.58;;;;;;;13.88;100.00;101050.06;4989093;28;20140;-68
2023/07/26 03:05:59;;;;;;;5.93;4.35;;;;;;;13.84;100.00;101053.03;4991306;28;20056;-68
2023/07/26 03:08:26;;;;;;;6.50;4.30;;;;;;;13.82;100.00;101049.72;4959490;28;20494;-70
2023/07/26 03:10:53;;;;;;;5.85;3.90;;;;;;;13.79;100.00;101044.78;4967341;28;20054;-69
2023/07/26 03:13:19;;;;;;;5.53;4.13;;;;;;;13.76;100.00;101046.91;4982020;28;20050;-68
2023/07/26 03:15:46;;;;;;;5.70;4.25;;;;;;;13.74;100.00;101054.16;4982021;28;20074;-70
2023/07/26 03:18:13;;;;;;;6.80;4.80;;;;;;;13.70;100.00;101052.81;4994473;28;20061;-68
2023/07/26 03:20:44;;;;;;;9.20;5.05;;;;;;;13.64;100.00;101047.22;4986322;28;20084;-70
2023/07/26 03:23:11;;;;;;;6.22;4.55;;;;;;;13.61;100.00;101055.44;4971870;28;20066;-68
2023/07/26 03:25:37;;;;;;;6.20;4.40;;;;;;;13.59;100.00;101053.97;4988617;28;20688;-68
2023/07/26 03:28:04;;;;;;;5.68;4.32;;;;;;;13.55;100.00;101061.34;4985580;28;20069;-69
2023/07/26 03:30:31;;;;;;;6.43;4.80;;;;;;;13.49;100.00;101069.09;4985053;28;20058;-69
2023/07/26 03:32:57;;;;;;;6.15;4.55;;;;;;;13.43;100.00;101063.47;4992343;28;20111;-68
2023/07/26 03:35:24;;;;;;;5.75;4.20;;;;;;;13.40;100.00;101069.03;4972258;28;20078;-69
2023/07/26 03:37:50;;;;;;;5.43;4.28;;;;;;;13.37;100.00;101064.09;4971766;28;20058;-68
2023/07/26 03:40:19;;;;;;;6.13;4.22;;;;;;;13.38;100.00;101067.56;4994627;28;20049;-69
2023/07/26 03:42:45;;;;;;;7.90;4.38;;;;;;;13.34;100.00;101063.59;5000634;28;20438;-68
2023/07/26 03:45:12;;;;;;;5.90;4.22;;;;;;;13.30;100.00;101070.16;4997588;28;20108;-68
2023/07/26 03:47:39;;;;;;;8.57;4.47;;;;;;;13.27;100.00;101068.66;4987790;28;20819;-68
2023/07/26 03:50:06;;;;;;;5.63;4.63;;;;;;;13.18;100.00;101059.88;4978568;28;20050;-68
2023/07/26 03:52:32;;;;;;;5.90;4.63;;;;;;;13.22;100.00;101066.47;4987771;28;20561;-68
2023/07/26 03:54:59;;;;;;;5.78;4.47;;;;;;;13.22;100.00;101060.38;4993552;28;20419;-68
2023/07/26 03:57:25;;;;;;;5.32;3.97;;;;;;;13.21;100.00;101066.63;4993312;28;20114;-68
2023/07/26 03:59:52;;;;;;;6.18;4.50;;;;;;;13.13;100.00;101064.78;4963884;28;20411;-70
2023/07/26 04:02:18;;;;;;;6.03;4.47;;;;;;;13.11;100.00;101063.28;4983034;28;20499;-68
2023/07/26 04:04:45;;;;;;;6.93;4.78;;;;;;;13.09;100.00;101071.31;4979023;28;20131;-68
2023/07/26 04:07:12;;;;;;;7.40;5.00;;;;;;;13.11;100.00;101076.44;4976380;28;20086;-68
2023/07/26 04:09:38;;;;;;;7.13;4.78;;;;;;;13.07;100.00;101075.94;4996149;28;20100;-68
2023/07/26 04:12:05;;;;;;;6.32;4.65;;;;;;;13.06;100.00;101080.38;4994298;28;20057;-68
2023/07/26 04:14:31;;;;;;;7.05;4.93;;;;;;;13.06;100.00;101074.28;4977212;28;20142;-68
2023/07/26 04:16:58;;;;;;;7.30;5.28;;;;;;;13.05;100.00;101070.84;4983440;28;20050;-68
2023/07/26 04:19:25;;;;;;;6.55;5.22;;;;;;;13.04;100.00;101071.00;4988471;28;20119;-69
2023/07/26 04:21:51;;;;;;;8.57;5.53;;;;;;;13.05;100.00;101072.63;4984667;28;20058;-68
2023/07/26 04:24:18;;;;;;;7.18;5.75;;;;;;;13.03;100.00;101069.31;4983463;28;20820;-68
2023/07/26 04:26:44;;;;;;;7.07;5.65;;;;;;;13.06;100.00;101077.75;4981313;28;20522;-68
2023/07/26 04:29:11;;;;;;;7.13;5.53;;;;;;;13.09;100.00;101079.22;4970875;28;20491;-69
2023/07/26 04:31:37;;;;;;;8.10;5.55;;;;;;;13.12;100.00;101073.66;4969206;28;20064;-69
2023/07/26 04:34:04;;;;;;;9.18;5.85;;;;;;;13.16;100.00;101071.53;4980791;28;20442;-69
2023/07/26 04:36:30;;;;;;;7.60;5.72;;;;;;;13.22;100.00;101073.53;4980600;28;20146;-67
2023/07/26 04:38:57;;;;;;;7.53;6.03;;;;;;;13.30;100.00;101072.78;5000824;28;20112;-68
2023/07/26 04:41:24;;;;;;;8.02;6.05;;;;;;;13.34;100.00;101074.13;4965656;28;20082;-70
2023/07/26 04:43:50;;;;;;;8.77;6.35;;;;;;;13.38;100.00;101080.72;4989429;28;20121;-68
2023/07/26 04:46:17;;;;;;;8.13;6.40;;;;;;;13.42;100.00;101074.16;4971173;28;20108;-69
2023/07/26 04:48:44;;;;;;;8.02;6.22;;;;;;;13.45;100.00;101073.84;4978319;28;20097;-68
2023/07/26 04:51:11;;;;;;;11.23;7.60;;;;;;;13.45;100.00;101074.66;4975996;28;20081;-70
2023/07/26 04:53:37;;;;;;;7.63;6.30;;;;;;;13.48;100.00;101070.88;4971533;28;20069;-68
2023/07/26 04:56:04;;;;;;;9.70;6.68;;;;;;;13.53;100.00;101073.06;4985006;28;20836;-68
2023/07/26 04:58:30;;;;;;;9.15;6.43;;;;;;;13.55;100.00;101069.25;4969749;28;20055;-68
2023/07/26 05:00:58;;;;;;;8.82;6.63;;;;;;;13.57;100.00;101072.56;4993973;28;20054;-68
2023/07/26 05:03:24;;;;;;;8.70;6.85;;;;;;;13.57;100.00;101064.66;4975368;28;20571;-67
2023/07/26 05:05:51;;;;;;;8.68;6.15;;;;;;;13.62;100.00;101075.56;4980697;28;20088;-68
2023/07/26 05:08:19;;;;;;;9.43;6.90;;;;;;;13.67;100.00;101071.63;4980284;28;20109;-68
2023/07/26 05:10:52;;;;;;;9.85;6.72;;;;;;;13.71;100.00;101065.84;4984629;28;20137;-70
2023/07/26 05:13:19;;;;;;;10.07;7.05;;;;;;;13.67;100.00;101064.53;4972164;28;20110;-68
2023/07/26 05:15:49;;;;;;;9.88;7.43;;;;;;;13.65;100.00;101071.75;4978576;28;20082;-68
2023/07/26 05:18:15;;;;;;;10.13;8.10;;;;;;;13.68;100.00;101071.47;4972512;28;20090;-68
2023/07/26 05:20:42;;;;;;;10.65;7.45;;;;;;;13.64;100.00;101072.75;4976453;28;20074;-68
2023/07/26 05:23:09;;;;;;;9.05;7.30;;;;;;;13.68;100.00;101067.97;4976503;28;20093;-68
2023/07/26 05:25:38;;;;;;;11.23;7.07;;;;;;;13.73;100.00;101081.50;4971725;28;20058;-68
2023/07/26 05:28:05;;;;;;;10.85;7.68;;;;;;;13.77;100.00;101088.09;4959655;28;20059;-68
2023/07/26 05:30:31;;;;;;;10.35;7.72;;;;;;;13.77;100.00;101086.28;4979437;28;20060;-69
2023/07/26 05:32:58;;;;;;;12.73;7.57;;;;;;;13.79;100.00;101092.22;4983837;28;20053;-68
2023/07/26 05:35:25;;;;;;;11.55;8.20;;;;;;;13.84;100.00;101087.31;4992538;28;20049;-68
2023/07/26 05:37:53;;;;;;;10.05;7.80;;;;;;;13.91;100.00;101084.84;4998178;28;20060;-70
2023/07/26 05:40:19;;;;;;;;;;;;;;;14.01;100.00;101087.34;4991635;28;20466;-67
2023/07/26 05:42:46;;;;;;;10.93;8.10;;;;;;;14.07;100.00;101083.22;4978646;28;20012;-68
2023/07/26 05:45:12;;;;;;;11.43;7.93;;;;;;;14.11;100.00;101085.38;4974857;28;20069;-67
2023/07/26 05:47:39;;;;;;;10.05;8.02;;;;;;;14.13;100.00;101083.41;4986408;28;20765;-68
2023/07/26 05:50:06;;;;;;;9.65;7.72;;;;;;;14.17;100.00;101084.72;4977114;28;20069;-68
2023/07/26 05:52:33;;;;;;;11.02;7.18;;;;;;;14.21;100.00;101087.84;4997153;28;20054;-68
2023/07/26 05:54:59;;;;;;;9.35;7.18;;;;;;;14.26;100.00;101090.81;4972877;28;20054;-68
2023/07/26 05:57:26;;;;;;;10.63;7.72;;;;;;;14.30;100.00;101094.78;4986491;28;20058;-68
2023/07/26 05:59:53;;;;;;;11.02;7.45;;;;;;;14.37;100.00;101089.69;4985816;28;20073;-69
2023/07/26 06:02:19;;;;;;;9.02;7.20;;;;;;;14.38;100.00;101096.59;4979230;28;20085;-68
2023/07/26 06:04:46;;;;;;;9.90;7.68;;;;;;;14.43;100.00;101094.31;4977376;28;20148;-68
2023/07/26 06:07:14;;;;;;;9.85;7.65;;;;;;;14.42;100.00;101090.81;4981135;28;20054;-68
2023/07/26 06:09:41;;;;;;;12.45;8.23;;;;;;;14.36;100.00;101080.94;4975731;28;20137;-69
2023/07/26 06:12:08;;;;;;;11.63;8.55;;;;;;;14.40;100.00;101079.59;4976360;28;20124;-70
2023/07/26 06:14:35;;;;;;;12.38;8.20;;;;;;;14.47;100.00;101077.16;4981204;28;20088;-68
2023/07/26 06:17:02;;;;;;;12.48;8.88;;;;;;;14.47;100.00;101077.16;4969468;28;20077;-69
2023/07/26 06:19:28;;;;;;;10.10;7.68;;;;;;;14.58;100.00;101083.94;4997106;28;20054;-69
2023/07/26 06:21:55;;;;;;;12.82;8.20;;;;;;;14.69;100.00;101086.22;4987376;28;20522;-68
2023/07/26 06:24:24;;;;;;;13.88;8.73;;;;;;;14.81;100.00;101097.28;4977277;28;20078;-69
2023/07/26 06:26:52;;;;;;;12.50;8.73;;;;;;;14.93;100.00;101100.38;4991803;28;20056;-68
2023/07/26 06:29:19;;;;;;;12.07;8.55;;;;;;;15.09;100.00;101108.28;4988348;28;20423;-70
2023/07/26 06:31:45;;;;;;;15.80;9.80;;;;;;;15.12;100.00;101107.94;4979389;28;20526;-69
2023/07/26 06:34:12;;;;;;;13.40;9.85;;;;;;;15.19;100.00;101116.00;4976307;28;20089;-68
2023/07/26 06:36:39;;;;;;;12.13;9.25;;;;;;;15.20;100.00;101118.47;4966262;28;20042;-69
2023/07/26 06:39:05;;;;;;;12.82;9.00;;;;;;;15.27;100.00;101131.00;4987466;28;20161;-68
2023/07/26 06:41:32;;;;;;;14.15;10.40;;;;;;;15.18;100.00;101128.41;4997706;28;20057;-69
2023/07/26 06:43:59;;;;;;;14.50;9.93;;;;;;;15.27;100.00;101141.59;4991595;28;20137;-68
2023/07/26 06:46:26;;;;;;;12.13;9.25;;;;;;;15.28;100.00;101145.91;4970202;28;20161;-69
2023/07/26 06:48:52;;;;;;;11.82;8.90;;;;;;;15.29;100.00;101147.53;4960653;28;20050;-68
2023/07/26 06:51:19;;;;;;;14.55;9.38;;;;;;;15.33;100.00;101149.69;4978189;28;20050;-69
2023/07/26 06:53:45;;;;;;;12.15;9.15;;;;;;;15.39;100.00;101150.81;4968255;28;20137;-68
2023/07/26 06:56:12;;;;;;;16.90;10.05;;;;;;;15.43;100.00;101139.72;4980862;28;20127;-69
2023/07/26 06:58:38;;;;;;;14.43;10.00;;;;;;;15.36;100.00;101146.69;4970250;28;20152;-68
2023/07/26 07:01:16;;;;;;;15.13;10.57;;;;;;;15.31;100.00;101145.53;4982689;28;20392;-68
2023/07/26 07:03:42;;;;;;;15.07;10.23;;;;;;;15.36;100.00;101137.94;4967528;28;20050;-70
2023/07/26 07:06:10;;;;;;;13.82;10.75;;;;;;;15.38;100.00;101149.97;4990419;28;20064;-68
2023/07/26 07:08:39;;;;;;;13.20;9.75;;;;;;;15.46;100.00;101143.84;4992185;28;20062;-68
2023/07/26 07:11:05;;;;;;;12.15;10.00;;;;;;;15.55;100.00;101155.22;4979485;28;20050;-68
2023/07/26 07:13:36;;;;;;;17.25;10.45;;;;;;;15.62;100.00;101158.81;4977655;28;20114;-68
2023/07/26 07:16:06;;;;;;;13.45;9.65;;;;;;;15.59;100.00;101160.00;4982592;28;20053;-68
2023/07/26 07:18:32;;;;;;;16.17;9.82;;;;;;;15.52;100.00;101176.72;4984300;28;20058;-68
2023/07/26 07:21:00;;;;;;;16.23;11.43;;;;;;;15.51;100.00;101181.19;4976488;28;20507;-70
2023/07/26 07:23:29;;;;;;;13.60;9.77;;;;;;;15.50;100.00;101189.28;4976669;28;20055;-67
2023/07/26 07:25:56;;;;;;;14.70;9.55;;;;;;;15.45;100.00;101195.06;4997954;28;20108;-70
2023/07/26 07:28:23;;;;;;;14.77;10.10;;;;;;;15.37;100.00;101206.50;4986352;28;20046;-69
2023/07/26 07:30:50;;;;;;;18.38;10.35;;;;;;;15.24;100.00;101211.47;4983472;28;20058;-69
2023/07/26 07:33:17;;;;;;;12.55;9.50;;;;;;;15.16;100.00;101219.41;4981798;28;20057;-68
2023/07/26 07:35:44;;;;;;;17.08;10.93;;;;;;;15.01;100.00;101221.88;4982744;28;20059;-69
2023/07/26 07:38:10;;;;;;;14.80;10.68;;;;;;;14.97;100.00;101217.94;4993283;28;20041;-71
2023/07/26 07:40:37;;;;;;;15.18;10.95;;;;;;;14.77;100.00;101223.53;5003416;28;20049;-71
2023/07/26 07:43:03;;;;;;;15.25;10.05;;;;;;;14.59;100.00;101234.25;5015361;28;20034;-71
2023/07/26 07:45:30;;;;;;;15.02;10.18;;;;;;;14.45;100.00;101232.22;4994898;28;20494;-69
2023/07/26 07:47:57;;;;;;;9.75;6.45;;;;;;;14.25;100.00;101236.94;4998629;28;20053;-69
2023/07/26 07:50:24;;;;;;;9.15;3.65;;;;;;;14.05;100.00;101239.00;4985163;28;20078;-68
2023/07/26 07:52:50;;;;;;;5.13;2.85;;;;;;;13.84;100.00;101231.50;4988490;28;20099;-69
2023/07/26 07:55:17;;;;;;;4.72;2.50;;;;;;;13.76;100.00;101220.91;4985134;28;20057;-70
2023/07/26 07:57:44;;;;;;;7.43;2.95;;;;;;;13.62;100.00;101210.00;4982914;28;20104;-71
2023/07/26 08:00:11;;;;;;;4.32;2.30;;;;;;;13.60;100.00;101197.94;4983555;28;20499;-71
2023/07/26 08:02:38;;;;;;;4.35;2.28;;;;;;;13.60;100.00;101171.56;4992020;28;20049;-69
2023/07/26 08:05:04;;;;;;;3.45;2.10;;;;;;;13.65;100.00;101177.22;4988930;28;20059;-69
2023/07/26 08:07:38;;;;;;;3.40;2.00;;;;;;;13.74;100.00;101178.06;4984879;28;20053;-69
2023/07/26 08:10:06;;;;;;;4.15;2.22;;;;;;;13.84;100.00;101168.22;4980457;28;20046;-70
2023/07/26 08:12:35;;;;;;;5.03;2.13;;;;;;;13.95;100.00;101175.00;4980093;28;20058;-70
2023/07/26 08:15:02;;;;;;;4.93;2.53;;;;;;;14.08;100.00;101177.22;4992957;28;20042;-70
2023/07/26 08:17:29;;;;;;;5.15;2.72;;;;;;;14.04;100.00;101166.97;4970564;28;20053;-69
2023/07/26 08:19:56;;;;;;;6.40;2.83;;;;;;;14.14;100.00;101171.28;4986719;28;20057;-69
2023/07/26 08:22:22;;;;;;;4.63;2.88;;;;;;;14.15;100.00;101179.03;4988004;28;20124;-69
2023/07/26 08:24:52;;;;;;;4.43;2.88;;;;;;;14.07;100.00;101167.63;4965920;28;20050;-70
2023/07/26 08:27:20;;;;;;;5.10;3.10;;;;;;;14.06;100.00;101168.63;4996953;28;20042;-70
2023/07/26 08:29:46;;;;;;;7.57;3.45;;;;;;;14.20;100.00;101166.19;4985135;28;20050;-70
2023/07/26 08:32:13;;;;;;;5.57;3.63;;;;;;;14.53;100.00;101173.34;4986645;28;20514;-68
2023/07/26 08:34:39;;;;;;;6.15;3.97;;;;;;;14.84;100.00;101168.25;5000495;28;20055;-71
2023/07/26 08:37:06;;;;;;;6.40;3.83;;;;;;;15.00;100.00;101170.88;4986265;28;20058;-68
2023/07/26 08:39:32;;;;;;;5.95;2.80;;;;;;;15.22;100.00;101164.06;4980812;28;20104;-68
2023/07/26 08:42:03;;;;;;;4.43;2.33;;;;;;;15.49;100.00;101171.78;4992281;28;20065;-68
2023/07/26 08:44:31;;;;;;;4.43;1.85;;;;;;;15.58;100.00;101160.16;4989011;28;20054;-69
2023/07/26 08:46:59;;;;;;;3.70;2.00;;;;;;;15.82;100.00;101165.38;4971488;28;20062;-71
2023/07/26 08:49:27;;;;;;;2.42;1.70;;;;;;;15.97;100.00;101157.53;4993453;28;20113;-68
2023/07/26 08:51:55;;;;;;;2.33;1.83;;;;;;;16.24;100.00;101165.16;4981155;28;20054;-71
2023/07/26 08:54:24;;;;;;;4.57;2.03;;;;;;;16.39;100.00;101156.28;4981341;28;20054;-69
2023/07/26 08:56:52;;;;;;;3.65;2.30;;;;;;;16.64;100.00;101161.41;4987530;28;20054;-69
2023/07/26 08:59:18;;;;;;;3.42;2.08;;;;;;;16.75;100.00;101158.31;4980569;28;20046;-70
2023/07/26 09:01:46;;;;;;;3.53;1.88;;;;;;;17.03;100.00;101170.19;4982325;28;20055;-71
2023/07/26 09:04:30;;;;;;;4.85;2.50;;;;;;;16.95;100.00;101163.97;4962536;28;20085;-70
2023/07/26 09:07:04;;;;;;;3.40;2.50;;;;;;;17.26;100.00;101165.66;4990020;28;20054;-69
2023/07/26 09:09:32;;;;;;;4.82;2.92;;;;;;;17.55;100.00;101164.84;4991444;28;20116;-69
2023/07/26 09:12:00;;;;;;;4.20;2.72;;;;;;;17.80;100.00;101164.53;4970289;28;20760;-69
2023/07/26 09:14:28;;;;;;;5.22;3.47;;;;;;;17.90;100.00;101157.13;4987880;28;20058;-70
2023/07/26 09:16:59;;;;;;;5.13;3.65;;;;;;;17.98;100.00;101164.16;4989902;28;20054;-69
2023/07/26 09:19:37;;;;;;;6.05;3.88;;;;;;;18.03;100.00;101161.75;4961000;28;20145;-70
2023/07/26 09:22:07;;;;;;;6.32;4.50;;;;;;;18.20;100.00;101159.72;4971724;28;20053;-70
2023/07/26 09:24:40;;;;;;;9.15;5.18;;;;;;;18.12;100.00;101162.47;4955034;28;20606;-70
2023/07/26 09:27:11;;;;;;;7.53;5.43;;;;;;;18.14;100.00;101155.97;4972478;28;20069;-71
2023/07/26 09:29:52;;;;;;;8.85;6.07;;;;;;;18.37;100.00;101154.97;4991623;28;20054;-69
2023/07/26 09:32:27;;;;;;;7.93;6.45;;;;;;;18.37;100.00;101160.28;4974563;28;20050;-69
2023/07/26 09:34:59;;;;;;;8.90;6.28;;;;;;;18.26;100.00;101145.66;4961506;28;20058;-69
2023/07/26 09:37:26;;;;;;;9.00;6.60;;;;;;;18.43;100.00;101140.94;4977221;28;20515;-70
2023/07/26 09:39:53;;;;;;;11.15;7.10;;;;;;;18.71;100.00;101137.50;4980923;28;20050;-71
2023/07/26 09:42:20;;;;;;;10.93;6.60;;;;;;;18.81;100.00;101130.03;4967742;28;20054;-69
2023/07/26 09:44:56;;;;;;;9.70;6.75;;;;;;;19.11;100.00;101140.44;4981211;28;20057;-70
2023/07/26 09:47:37;;;;;;;9.77;7.07;;;;;;;19.19;100.00;101135.00;4977565;28;20853;-70
2023/07/26 09:50:07;;;;;;;10.85;7.65;;;;;;;19.46;100.00;101135.13;4979438;28;20058;-70
2023/07/26 09:52:39;;;;;;;10.23;6.10;;;;;;;19.46;98.57;101135.13;4992708;28;20094;-70
2023/07/26 09:55:07;;;;;;;8.73;5.57;;;;;;;19.78;100.00;101135.50;4958645;28;20101;-69
2023/07/26 09:57:37;;;;;;;9.35;6.43;;;;;;;19.89;95.75;101142.91;4976955;28;20050;-70
2023/07/26 10:00:06;;;;;;;7.93;4.82;;;;;;;20.15;98.30;101136.84;4980972;28;20141;-70
2023/07/26 10:02:34;;;;;;;10.65;6.47;;;;;;;19.71;89.26;101138.09;4973771;28;20108;-69
2023/07/26 10:05:03;;;;;;;8.85;6.35;;;;;;;19.92;97.38;101135.34;4971796;28;20062;-70
2023/07/26 10:07:31;;;;;;;12.05;5.70;;;;;;;19.78;98.10;101127.50;4967492;28;20680;-70
2023/07/26 10:10:01;;;;;;;9.63;6.07;;;;;;;20.13;94.21;101141.53;4996716;28;20138;-73
2023/07/26 10:12:31;;;;;;;10.57;6.00;;;;;;;20.24;100.00;101145.44;4986296;28;20062;-70
2023/07/26 10:14:58;;;;;;;10.77;6.85;;;;;;;20.67;99.85;101131.78;4972448;28;20169;-71
2023/07/26 10:17:26;;;;;;;12.98;6.47;;;;;;;20.65;92.77;101133.84;4989361;28;20066;-70
2023/07/26 10:19:54;;;;;;;;;;;;;;;20.50;85.18;101139.31;4972750;28;20172;-70
2023/07/26 10:22:22;;;;;;;9.75;6.38;;;;;;;20.48;81.87;101133.38;4980023;28;20379;-70
2023/07/26 10:24:48;;;;;;;8.55;6.20;;;;;;;20.48;86.13;101134.22;4987259;28;20064;-72
2023/07/26 10:27:16;;;;;;;10.90;6.30;;;;;;;19.97;84.00;101136.59;4999021;28;20759;-69
2023/07/26 10:29:44;;;;;;;9.07;6.50;;;;;;;19.89;96.83;101142.91;4968089;28;20056;-70
2023/07/26 10:32:11;;;;;;;12.85;7.18;;;;;;;19.74;100.00;101146.56;4987884;28;20503;-70
2023/07/26 10:34:39;;;;;;;9.70;7.30;;;;;;;19.49;100.00;101142.72;4981087;28;20046;-70
2023/07/26 10:37:18;;;;;;;8.97;7.07;;;;;;;19.56;100.00;101149.72;4967424;28;20046;-69
2023/07/26 10:39:45;;;;;;;9.60;6.80;;;;;;;19.46;100.00;101135.94;4998160;28;20078;-69
2023/07/26 10:42:21;;;;;;;11.83;6.63;;;;;;;19.44;100.00;101137.16;4984210;28;20113;-69
2023/07/26 10:44:47;;;;;;;9.20;5.95;;;;;;;19.41;100.00;101127.75;4973449;28;20061;-69
2023/07/26 10:47:14;;;;;;;8.90;5.47;;;;;;;19.36;100.00;101138.16;4989114;28;20050;-68
2023/07/26 10:49:46;;;;;;;7.68;4.32;;;;;;;19.27;100.00;101140.16;4973149;28;20115;-70
2023/07/26 10:52:13;;;;;;;7.22;3.80;;;;;;;19.10;100.00;101144.97;4993973;28;20076;-69
2023/07/26 10:54:45;;;;;;;6.90;3.78;;;;;;;19.00;100.00;101146.34;4987266;28;20747;-73
2023/07/26 10:57:28;;;;;;;5.57;3.72;;;;;;;18.94;100.00;101150.59;4976314;28;20577;-68
2023/07/26 10:59:59;;;;;;;7.18;4.32;;;;;;;18.60;100.00;101153.94;4966947;28;20613;-69
2023/07/26 11:02:44;;;;;;;7.20;4.25;;;;;;;18.57;100.00;101150.66;4982255;28;20062;-68
2023/07/26 11:05:18;;;;;;;25.55;16.95;;;;;;;18.60;100.00;101149.44;4973884;28;20051;-70
2023/07/26 11:07:47;;;;;;;10.63;5.30;;;;;;;18.92;100.00;101152.63;4989028;28;20061;-70
2023/07/26 11:10:21;;;;;;;7.93;4.30;;;;;;;19.35;100.00;101147.16;4968189;28;20122;-67
2023/07/26 11:12:50;;;;;;;7.28;4.30;;;;;;;19.61;100.00;101146.47;4977903;28;20750;-72
2023/07/26 11:15:27;;;;;;;7.20;4.10;;;;;;;19.99;100.00;101132.69;4980093;28;20057;-68
2023/07/26 11:18:16;;;;;;;7.47;3.85;;;;;;;20.31;100.00;101135.63;4971057;28;20049;-71
2023/07/26 11:20:48;;;;;;;8.52;4.70;;;;;;;20.26;94.82;101141.56;4992392;28;20151;-70